createdAt,value
2019-06-26T00:03:02.483Z,65.20
2019-06-26T00:07:14.461Z,66.00
2019-06-26T00:11:24.807Z,65.10
2019-06-26T00:15:35.148Z,65.20
2019-06-26T00:19:45.520Z,65.10
2019-06-26T00:23:56.069Z,65.00
2019-06-26T00:28:06.411Z,65.10
2019-06-26T00:32:16.719Z,65.40
2019-06-26T00:36:27.031Z,65.60
2019-06-26T00:40:37.439Z,65.70
2019-06-26T00:44:48.976Z,65.40
2019-06-26T00:48:59.318Z,65.30
2019-06-26T00:53:09.724Z,65.00
2019-06-26T00:57:20.064Z,64.70
2019-06-26T01:01:30.433Z,64.40
2019-06-26T01:05:41.539Z,64.20
2019-06-26T01:09:51.879Z,64.10
2019-06-26T01:14:02.177Z,64.10
2019-06-26T01:18:12.518Z,64.10
2019-06-26T01:22:22.872Z,64.40
2019-06-26T01:26:33.159Z,64.50
2019-06-26T01:30:43.521Z,64.80
2019-06-26T01:34:53.853Z,65.40
2019-06-26T01:39:06.067Z,65.90
2019-06-26T01:43:16.439Z,66.60
2019-06-26T01:47:27.034Z,67.00
2019-06-26T01:51:37.363Z,67.20
2019-06-26T01:55:47.750Z,67.50
2019-06-26T01:59:58.058Z,67.80
2019-06-26T02:04:08.843Z,67.90
2019-06-26T02:08:19.237Z,68.20
2019-06-26T02:12:29.600Z,68.20
2019-06-26T02:16:39.928Z,68.40
2019-06-26T02:20:50.257Z,68.70
2019-06-26T02:25:00.592Z,68.90
2019-06-26T02:29:10.972Z,69.20
2019-06-26T02:33:21.332Z,69.30
2019-06-26T02:37:31.781Z,69.70
2019-06-26T02:41:42.234Z,70.00
2019-06-26T02:45:52.634Z,70.10
2019-06-26T02:50:03.545Z,70.30
2019-06-26T02:54:13.969Z,70.20
2019-06-26T02:58:24.273Z,70.20
2019-06-26T03:02:34.599Z,69.90
2019-06-26T03:06:44.828Z,69.80
2019-06-26T03:10:55.132Z,69.60
2019-06-26T03:15:09.881Z,69.40
2019-06-26T03:19:20.508Z,69.10
2019-06-26T03:23:30.849Z,69.00
2019-06-26T03:27:41.425Z,69.00
2019-06-26T03:31:51.946Z,69.10
2019-06-26T03:36:02.322Z,68.80
2019-06-26T03:40:13.095Z,68.20
2019-06-26T03:44:23.436Z,67.70
2019-06-26T03:48:33.744Z,67.10
2019-06-26T03:52:44.064Z,65.40
2019-06-26T03:56:54.463Z,63.80
2019-06-26T04:01:05.590Z,63.50
2019-06-26T04:05:15.903Z,63.00
2019-06-26T04:09:26.128Z,61.70
2019-06-26T04:13:36.476Z,60.50
2019-06-26T04:17:46.883Z,59.80
2019-06-26T04:21:57.220Z,59.30
2019-06-26T04:26:07.587Z,59.80
2019-06-26T04:30:18.710Z,58.60
2019-06-26T04:34:29.051Z,58.60
2019-06-26T04:38:39.475Z,58.10
2019-06-26T04:42:49.690Z,57.60
2019-06-26T04:47:00.019Z,57.80
2019-06-26T04:51:10.361Z,56.50
2019-06-26T04:55:20.668Z,56.40
2019-06-26T04:59:31.007Z,56.00
2019-06-26T05:03:41.335Z,55.50
2019-06-26T05:07:53.716Z,55.30
2019-06-26T05:12:03.538Z,54.50
2019-06-26T05:16:16.598Z,54.30
2019-06-26T05:20:25.819Z,53.60
2019-06-26T05:24:36.069Z,53.40
2019-06-26T05:28:46.464Z,52.60
2019-06-26T05:32:56.904Z,52.30
2019-06-26T05:37:07.220Z,51.90
2019-06-26T05:41:17.609Z,51.70
2019-06-26T05:45:28.002Z,50.80
2019-06-26T05:49:38.372Z,49.80
2019-06-26T05:53:48.737Z,49.00
2019-06-26T05:57:59.059Z,48.70
2019-06-26T06:02:09.560Z,48.60
2019-06-26T06:06:19.909Z,47.30
2019-06-26T06:10:30.289Z,46.80
2019-06-26T06:14:40.569Z,46.00
2019-06-26T06:18:50.908Z,45.70
2019-06-26T06:23:01.431Z,45.60
2019-06-26T06:27:11.821Z,45.30
2019-06-26T06:31:22.233Z,44.70
2019-06-26T06:35:32.551Z,44.00
2019-06-26T06:39:42.811Z,43.20
2019-06-26T06:43:53.099Z,42.50
2019-06-26T06:48:03.437Z,43.00
2019-06-26T06:52:16.569Z,43.10
2019-06-26T06:56:25.712Z,42.80
2019-06-26T07:00:37.543Z,42.70
2019-06-26T07:04:48.795Z,43.50
2019-06-26T07:08:59.314Z,42.90
2019-06-26T07:13:09.658Z,42.50
2019-06-26T07:17:21.436Z,42.40
2019-06-26T07:21:31.977Z,42.80
2019-06-26T07:25:42.338Z,42.10
2019-06-26T07:29:52.700Z,41.80
2019-06-26T07:34:02.940Z,41.40
2019-06-26T07:38:13.249Z,41.60
2019-06-26T07:42:23.585Z,40.90
2019-06-26T07:46:33.905Z,41.00
2019-06-26T07:50:44.479Z,40.70
2019-06-26T07:54:54.834Z,40.50
2019-06-26T07:59:05.405Z,40.30
2019-06-26T08:03:15.786Z,39.80
2019-06-26T08:07:26.293Z,38.80
2019-06-26T08:11:37.023Z,38.50
2019-06-26T08:15:47.418Z,38.20
2019-06-26T08:19:57.762Z,38.00
2019-06-26T08:24:08.359Z,38.20
2019-06-26T08:28:18.664Z,37.10
2019-06-26T08:32:29.132Z,36.70
2019-06-26T08:36:39.475Z,36.40
2019-06-26T08:40:51.550Z,36.80
2019-06-26T08:45:01.881Z,36.10
2019-06-26T08:49:24.957Z,35.70
2019-06-26T08:53:25.109Z,35.60
2019-06-26T08:57:35.779Z,35.30
2019-06-26T09:01:46.226Z,35.20
2019-06-26T09:05:56.592Z,35.10
2019-06-26T09:10:07.432Z,34.00
2019-06-26T09:14:17.822Z,34.10
2019-06-26T09:18:35.558Z,34.00
2019-06-26T09:22:40.262Z,33.70
2019-06-26T09:26:50.697Z,33.10
2019-06-26T09:31:00.996Z,32.80
2019-06-26T09:35:11.631Z,32.60
2019-06-26T09:39:22.217Z,33.10
2019-06-26T09:43:32.615Z,32.70
2019-06-26T09:47:42.962Z,32.50
2019-06-26T09:51:53.377Z,32.20
2019-06-26T09:56:03.787Z,32.50
2019-06-26T10:00:16.713Z,31.10
2019-06-26T10:04:27.106Z,31.10
2019-06-26T10:08:37.340Z,31.00
2019-06-26T10:12:47.742Z,31.60
2019-06-26T10:16:58.359Z,31.10
2019-06-26T10:21:08.706Z,30.90
2019-06-26T10:25:19.178Z,31.10
2019-06-26T10:29:29.466Z,31.40
2019-06-26T10:33:39.793Z,31.50
2019-06-26T10:37:50.264Z,31.80
2019-06-26T10:42:00.597Z,32.20
2019-06-26T10:46:11.777Z,32.50
2019-06-26T10:50:22.106Z,32.00
2019-06-26T10:54:32.433Z,31.70
2019-06-26T10:58:43.380Z,31.20
2019-06-26T11:02:54.104Z,31.50
2019-06-26T11:07:04.863Z,30.70
2019-06-26T11:11:15.333Z,30.00
2019-06-26T11:15:25.942Z,30.50
2019-06-26T11:19:43.838Z,30.00
2019-06-26T11:23:48.592Z,29.10
2019-06-26T11:27:58.978Z,28.80
2019-06-26T11:32:09.799Z,30.00
2019-06-26T11:36:20.103Z,30.10
2019-06-26T11:40:30.620Z,30.00
2019-06-26T11:44:41.151Z,29.80
2019-06-26T11:48:51.489Z,29.60
2019-06-26T11:53:02.002Z,29.80
2019-06-26T11:57:12.540Z,29.80
2019-06-26T12:01:23.494Z,31.10
2019-06-26T12:05:34.029Z,32.20
2019-06-26T12:09:44.480Z,32.90
2019-06-26T12:13:55.110Z,32.50
2019-06-26T12:18:05.836Z,31.30
2019-06-26T12:22:16.154Z,31.70
2019-06-26T12:26:26.504Z,32.00
2019-06-26T12:30:36.984Z,32.40
2019-06-26T12:34:47.640Z,32.90
2019-06-26T12:38:57.946Z,33.10
2019-06-26T12:43:08.356Z,33.60
2019-06-26T12:47:18.786Z,33.80
2019-06-26T12:51:29.637Z,32.30
2019-06-26T12:55:40.742Z,31.40
2019-06-26T12:59:57.139Z,31.50
2019-06-26T13:04:03.469Z,32.40
2019-06-26T13:08:13.792Z,31.60
2019-06-26T13:12:24.138Z,32.00
2019-06-26T13:16:34.617Z,32.20
2019-06-26T13:20:52.656Z,32.40
2019-06-26T13:24:57.219Z,33.20
2019-06-26T13:29:09.924Z,33.00
2019-06-26T13:33:19.984Z,32.60
2019-06-26T13:37:30.516Z,33.10
2019-06-26T13:41:42.517Z,31.30
2019-06-26T13:45:52.985Z,30.80
2019-06-26T13:50:05.072Z,31.60
2019-06-26T13:54:15.886Z,33.70
2019-06-26T13:58:26.231Z,34.20
2019-06-26T14:02:36.546Z,34.50
2019-06-26T14:06:46.796Z,34.40
2019-06-26T14:10:57.192Z,34.50
2019-06-26T14:15:07.904Z,34.30
2019-06-26T14:19:18.102Z,34.30
2019-06-26T14:23:28.419Z,34.30
2019-06-26T14:27:38.710Z,35.10
2019-06-26T14:31:49.042Z,35.40
2019-06-26T14:35:59.330Z,35.50
2019-06-26T14:40:09.881Z,35.60
2019-06-26T14:44:20.302Z,35.80
2019-06-26T14:48:30.628Z,34.30
2019-06-26T14:52:41.050Z,34.20
2019-06-26T14:56:51.520Z,35.00
2019-06-26T15:01:01.817Z,35.20
2019-06-26T15:05:13.931Z,35.90
2019-06-26T15:09:24.233Z,36.40
2019-06-26T15:13:34.545Z,36.70
2019-06-26T15:17:44.891Z,37.00
2019-06-26T15:21:58.776Z,37.50
2019-06-26T15:26:07.181Z,38.00
2019-06-26T15:30:17.728Z,38.00
2019-06-26T15:34:28.036Z,38.10
2019-06-26T15:38:38.951Z,38.10
2019-06-26T15:42:49.285Z,38.20
2019-06-26T15:46:59.550Z,38.10
2019-06-26T15:51:09.859Z,38.10
2019-06-26T15:55:20.130Z,38.90
2019-06-26T15:59:31.217Z,39.40
2019-06-26T16:03:41.682Z,39.50
2019-06-26T16:07:52.041Z,39.70
2019-06-26T16:12:02.398Z,39.60
2019-06-26T16:16:12.728Z,39.90
2019-06-26T16:20:24.582Z,39.80
2019-06-26T16:24:35.070Z,40.30
2019-06-26T16:28:45.440Z,40.30
2019-06-26T16:32:57.005Z,40.70
2019-06-26T16:37:07.414Z,40.50
2019-06-26T16:41:17.721Z,40.70
2019-06-26T16:45:28.199Z,40.50
2019-06-26T16:49:38.520Z,40.50
2019-06-26T16:53:48.914Z,40.60
2019-06-26T16:57:59.202Z,40.50
2019-06-26T17:02:09.533Z,40.70
2019-06-26T17:06:19.985Z,40.30
2019-06-26T17:10:30.278Z,40.30
2019-06-26T17:14:40.641Z,40.30
2019-06-26T17:18:50.985Z,40.60
2019-06-26T17:23:06.289Z,40.50
2019-06-26T17:27:13.299Z,40.80
2019-06-26T17:31:23.908Z,41.40
2019-06-26T17:35:37.098Z,41.70
2019-06-26T17:39:47.544Z,42.20
2019-06-26T17:43:58.000Z,42.60
2019-06-26T17:48:08.643Z,43.20
2019-06-26T17:52:18.957Z,43.60
2019-06-26T17:56:29.289Z,43.70
2019-06-26T18:00:40.660Z,43.60
2019-06-26T18:04:51.781Z,43.10
2019-06-26T18:09:02.177Z,43.00
2019-06-26T18:13:12.731Z,43.10
2019-06-26T18:17:23.082Z,42.20
2019-06-26T18:21:33.405Z,42.00
2019-06-26T18:25:53.587Z,41.80
2019-06-26T18:29:58.212Z,41.00
2019-06-26T18:34:08.925Z,40.90
2019-06-26T18:38:19.262Z,40.60
2019-06-26T18:42:29.503Z,40.60
2019-06-26T18:46:40.084Z,40.90
2019-06-26T18:50:50.654Z,41.10
2019-06-26T18:55:01.250Z,41.50
2019-06-26T18:59:12.640Z,41.80
2019-06-26T19:03:22.913Z,42.00
2019-06-26T19:07:33.318Z,42.50
2019-06-26T19:11:43.656Z,42.80
2019-06-26T19:15:53.963Z,43.10
2019-06-26T19:20:06.764Z,43.50
2019-06-26T19:24:17.122Z,43.70
2019-06-26T19:28:27.779Z,44.20
2019-06-26T19:32:37.960Z,44.50
2019-06-26T19:36:50.534Z,45.20
2019-06-26T19:41:00.264Z,46.00
2019-06-26T19:45:12.341Z,46.70
2019-06-26T19:49:22.664Z,47.10
2019-06-26T19:53:33.018Z,47.70
2019-06-26T19:57:43.339Z,48.10
2019-06-26T20:01:53.715Z,48.50
2019-06-26T20:06:04.178Z,48.60
2019-06-26T20:10:15.142Z,48.60
2019-06-26T20:14:25.460Z,48.70
2019-06-26T20:18:35.758Z,48.90
2019-06-26T20:22:46.101Z,48.80
2019-06-26T20:26:56.461Z,49.60
2019-06-26T20:31:06.834Z,49.00
2019-06-26T20:35:17.186Z,49.10
2019-06-26T20:39:27.681Z,49.00
2019-06-26T20:43:39.541Z,49.20
2019-06-26T20:47:50.019Z,49.70
2019-06-26T20:52:00.383Z,49.70
2019-06-26T20:56:10.732Z,50.00
2019-06-26T21:00:22.636Z,50.30
2019-06-26T21:04:33.182Z,50.70
2019-06-26T21:08:43.483Z,51.10
2019-06-26T21:12:53.855Z,51.80
2019-06-26T21:17:04.101Z,51.20
2019-06-26T21:21:14.407Z,51.40
2019-06-26T21:25:24.663Z,51.60
2019-06-26T21:29:34.887Z,51.60
2019-06-26T21:33:45.222Z,51.70
2019-06-26T21:37:55.566Z,52.00
2019-06-26T21:42:05.913Z,52.30
2019-06-26T21:46:16.431Z,52.50
2019-06-26T21:50:28.976Z,52.80
2019-06-26T21:54:38.802Z,53.20
2019-06-26T21:58:49.121Z,53.50
2019-06-26T22:02:59.738Z,53.90
2019-06-26T22:07:10.042Z,54.50
2019-06-26T22:11:20.307Z,54.80
2019-06-26T22:15:30.603Z,55.10
2019-06-26T22:19:40.944Z,55.30
2019-06-26T22:23:51.405Z,55.70
2019-06-26T22:28:01.758Z,56.20
2019-06-26T22:32:12.093Z,56.60
2019-06-26T22:36:22.403Z,57.00
2019-06-26T22:40:32.703Z,57.40
2019-06-26T22:44:43.033Z,57.50
2019-06-26T22:48:53.289Z,58.70
2019-06-26T22:53:03.700Z,58.10
2019-06-26T22:57:14.159Z,58.20
2019-06-26T23:01:24.475Z,58.50
2019-06-26T23:05:35.576Z,58.70
2019-06-26T23:09:45.917Z,59.00
2019-06-26T23:13:56.362Z,59.20
2019-06-26T23:18:07.170Z,59.30
2019-06-26T23:22:17.473Z,59.40
2019-06-26T23:26:27.810Z,59.60
2019-06-26T23:30:38.142Z,59.30
2019-06-26T23:34:48.369Z,58.80
2019-06-26T23:38:58.694Z,58.70
2019-06-26T23:43:09.015Z,58.80
2019-06-26T23:47:19.301Z,58.90
2019-06-26T23:51:29.613Z,58.90
2019-06-26T23:55:40.011Z,59.50
2019-06-26T23:59:50.313Z,60.00
